sensor_id;sensor_type;location;lat;lon;timestamp;P1;durP1;ratioP1;P2;durP2;ratioP2
19971;SDS011;10147;16.402;102.848;2023-03-31T00:00:04;75.95;;;56.78;;
19971;SDS011;10147;16.402;102.848;2023-03-31T00:02:39;69.97;;;60.05;;
19971;SDS011;10147;16.402;102.848;2023-03-31T00:05:10;64.35;;;56.00;;
19971;SDS011;10147;16.402;102.848;2023-03-31T00:07:46;62.72;;;54.55;;
19971;SDS011;10147;16.402;102.848;2023-03-31T00:10:16;57.30;;;46.08;;
19971;SDS011;10147;16.402;102.848;2023-03-31T00:12:49;56.83;;;46.92;;
19971;SDS011;10147;16.402;102.848;2023-03-31T00:15:19;58.38;;;45.75;;
19971;SDS011;10147;16.402;102.848;2023-03-31T00:17:49;55.78;;;45.45;;
19971;SDS011;10147;16.402;102.848;2023-03-31T00:20:19;57.05;;;44.85;;
19971;SDS011;10147;16.402;102.848;2023-03-31T00:22:50;55.33;;;42.88;;
19971;SDS011;10147;16.402;102.848;2023-03-31T00:25:22;56.28;;;46.72;;
19971;SDS011;10147;16.402;102.848;2023-03-31T00:27:53;60.63;;;44.58;;
19971;SDS011;10147;16.402;102.848;2023-03-31T00:30:23;56.38;;;50.22;;
19971;SDS011;10147;16.402;102.848;2023-03-31T00:32:53;57.42;;;50.25;;
19971;SDS011;10147;16.402;102.848;2023-03-31T00:35:25;55.78;;;49.67;;
19971;SDS011;10147;16.402;102.848;2023-03-31T00:37:55;55.92;;;46.90;;
19971;SDS011;10147;16.402;102.848;2023-03-31T00:40:26;57.60;;;46.42;;
19971;SDS011;10147;16.402;102.848;2023-03-31T00:42:56;55.63;;;47.03;;
19971;SDS011;10147;16.402;102.848;2023-03-31T00:45:28;58.13;;;45.30;;
19971;SDS011;10147;16.402;102.848;2023-03-31T00:48:01;57.75;;;46.88;;
19971;SDS011;10147;16.402;102.848;2023-03-31T00:50:34;56.22;;;44.97;;
19971;SDS011;10147;16.402;102.848;2023-03-31T00:53:06;58.35;;;47.15;;
19971;SDS011;10147;16.402;102.848;2023-03-31T00:55:41;57.13;;;47.95;;
19971;SDS011;10147;16.402;102.848;2023-03-31T00:58:12;52.00;;;44.70;;
19971;SDS011;10147;16.402;102.848;2023-03-31T01:00:48;58.45;;;47.00;;
19971;SDS011;10147;16.402;102.848;2023-03-31T01:03:21;60.95;;;46.20;;
19971;SDS011;10147;16.402;102.848;2023-03-31T01:05:52;59.22;;;48.05;;
19971;SDS011;10147;16.402;102.848;2023-03-31T01:08:24;56.90;;;45.53;;
19971;SDS011;10147;16.402;102.848;2023-03-31T01:10:57;58.50;;;45.33;;
19971;SDS011;10147;16.402;102.848;2023-03-31T01:13:28;56.35;;;46.97;;
19971;SDS011;10147;16.402;102.848;2023-03-31T01:15:59;58.75;;;47.85;;
19971;SDS011;10147;16.402;102.848;2023-03-31T01:18:31;59.83;;;50.17;;
19971;SDS011;10147;16.402;102.848;2023-03-31T01:24:22;54.45;;;43.30;;
19971;SDS011;10147;16.402;102.848;2023-03-31T01:41:41;51.45;;;42.95;;
19971;SDS011;10147;16.402;102.848;2023-03-31T01:47:08;53.08;;;46.20;;
19971;SDS011;10147;16.402;102.848;2023-03-31T01:49:50;57.13;;;47.03;;
19971;SDS011;10147;16.402;102.848;2023-03-31T01:52:27;55.75;;;45.53;;
19971;SDS011;10147;16.402;102.848;2023-03-31T01:55:10;53.25;;;43.63;;
19971;SDS011;10147;16.402;102.848;2023-03-31T01:57:59;58.55;;;43.65;;
19971;SDS011;10147;16.402;102.848;2023-03-31T02:00:32;51.20;;;44.05;;
19971;SDS011;10147;16.402;102.848;2023-03-31T02:03:07;53.30;;;43.58;;
19971;SDS011;10147;16.402;102.848;2023-03-31T02:05:42;57.88;;;45.08;;
19971;SDS011;10147;16.402;102.848;2023-03-31T02:08:19;51.63;;;42.67;;
19971;SDS011;10147;16.402;102.848;2023-03-31T02:10:50;55.55;;;42.60;;
19971;SDS011;10147;16.402;102.848;2023-03-31T02:13:22;49.95;;;41.53;;
19971;SDS011;10147;16.402;102.848;2023-03-31T02:16:00;46.33;;;40.53;;
19971;SDS011;10147;16.402;102.848;2023-03-31T02:18:32;46.42;;;40.03;;
19971;SDS011;10147;16.402;102.848;2023-03-31T02:21:08;52.35;;;41.00;;
19971;SDS011;10147;16.402;102.848;2023-03-31T02:23:42;55.42;;;49.72;;
19971;SDS011;10147;16.402;102.848;2023-03-31T02:26:16;62.25;;;54.22;;
19971;SDS011;10147;16.402;102.848;2023-03-31T02:28:48;61.53;;;54.47;;
19971;SDS011;10147;16.402;102.848;2023-03-31T02:34:08;49.83;;;41.70;;
19971;SDS011;10147;16.402;102.848;2023-03-31T02:36:39;45.40;;;39.85;;
19971;SDS011;10147;16.402;102.848;2023-03-31T02:39:14;49.63;;;41.20;;
19971;SDS011;10147;16.402;102.848;2023-03-31T02:41:47;52.17;;;42.67;;
19971;SDS011;10147;16.402;102.848;2023-03-31T02:44:19;45.85;;;40.28;;
19971;SDS011;10147;16.402;102.848;2023-03-31T02:46:51;50.85;;;40.45;;
19971;SDS011;10147;16.402;102.848;2023-03-31T02:49:21;50.92;;;45.42;;
19971;SDS011;10147;16.402;102.848;2023-03-31T02:54:56;46.83;;;41.80;;
19971;SDS011;10147;16.402;102.848;2023-03-31T02:57:41;52.33;;;46.75;;
19971;SDS011;10147;16.402;102.848;2023-03-31T03:06:11;48.92;;;40.83;;
19971;SDS011;10147;16.402;102.848;2023-03-31T03:09:03;44.83;;;39.45;;
19971;SDS011;10147;16.402;102.848;2023-03-31T03:11:38;55.40;;;37.50;;
19971;SDS011;10147;16.402;102.848;2023-03-31T03:17:02;45.35;;;38.67;;
19971;SDS011;10147;16.402;102.848;2023-03-31T03:19:35;48.28;;;37.75;;
19971;SDS011;10147;16.402;102.848;2023-03-31T03:22:05;43.42;;;36.67;;
19971;SDS011;10147;16.402;102.848;2023-03-31T03:24:35;49.63;;;38.70;;
19971;SDS011;10147;16.402;102.848;2023-03-31T03:27:07;45.33;;;36.90;;
19971;SDS011;10147;16.402;102.848;2023-03-31T03:29:38;44.50;;;39.80;;
19971;SDS011;10147;16.402;102.848;2023-03-31T03:32:10;47.78;;;38.08;;
19971;SDS011;10147;16.402;102.848;2023-03-31T03:34:41;47.85;;;41.72;;
19971;SDS011;10147;16.402;102.848;2023-03-31T03:37:11;46.08;;;40.45;;
19971;SDS011;10147;16.402;102.848;2023-03-31T03:39:42;46.70;;;41.67;;
19971;SDS011;10147;16.402;102.848;2023-03-31T03:42:12;45.38;;;39.83;;
19971;SDS011;10147;16.402;102.848;2023-03-31T03:44:43;48.58;;;42.97;;
19971;SDS011;10147;16.402;102.848;2023-03-31T03:47:13;47.03;;;42.00;;
19971;SDS011;10147;16.402;102.848;2023-03-31T03:49:44;46.42;;;39.83;;
19971;SDS011;10147;16.402;102.848;2023-03-31T03:52:16;42.78;;;38.10;;
19971;SDS011;10147;16.402;102.848;2023-03-31T03:54:46;46.40;;;39.67;;
19971;SDS011;10147;16.402;102.848;2023-03-31T03:57:17;46.80;;;40.25;;
19971;SDS011;10147;16.402;102.848;2023-03-31T03:59:47;52.03;;;40.20;;
19971;SDS011;10147;16.402;102.848;2023-03-31T04:02:19;50.00;;;39.03;;
19971;SDS011;10147;16.402;102.848;2023-03-31T04:04:53;44.17;;;39.25;;
19971;SDS011;10147;16.402;102.848;2023-03-31T04:07:23;47.40;;;41.03;;
19971;SDS011;10147;16.402;102.848;2023-03-31T04:09:54;43.67;;;38.60;;
19971;SDS011;10147;16.402;102.848;2023-03-31T04:12:24;44.40;;;39.70;;
19971;SDS011;10147;16.402;102.848;2023-03-31T04:14:55;45.55;;;38.65;;
19971;SDS011;10147;16.402;102.848;2023-03-31T04:17:25;43.13;;;37.25;;
19971;SDS011;10147;16.402;102.848;2023-03-31T04:20:04;42.65;;;38.20;;
19971;SDS011;10147;16.402;102.848;2023-03-31T04:22:37;42.28;;;36.38;;
19971;SDS011;10147;16.402;102.848;2023-03-31T04:25:10;44.53;;;38.15;;
19971;SDS011;10147;16.402;102.848;2023-03-31T04:27:45;47.80;;;37.55;;
19971;SDS011;10147;16.402;102.848;2023-03-31T04:30:18;40.58;;;36.42;;
19971;SDS011;10147;16.402;102.848;2023-03-31T04:32:57;42.78;;;37.58;;
19971;SDS011;10147;16.402;102.848;2023-03-31T04:35:28;41.20;;;36.22;;
19971;SDS011;10147;16.402;102.848;2023-03-31T04:38:21;39.08;;;34.88;;
19971;SDS011;10147;16.402;102.848;2023-03-31T04:40:51;39.15;;;34.95;;
19971;SDS011;10147;16.402;102.848;2023-03-31T04:43:22;40.58;;;36.10;;
19971;SDS011;10147;16.402;102.848;2023-03-31T04:45:53;42.55;;;36.67;;
19971;SDS011;10147;16.402;102.848;2023-03-31T04:48:24;40.20;;;35.67;;
19971;SDS011;10147;16.402;102.848;2023-03-31T04:50:54;41.42;;;35.90;;
19971;SDS011;10147;16.402;102.848;2023-03-31T04:53:25;37.25;;;33.15;;
19971;SDS011;10147;16.402;102.848;2023-03-31T04:55:55;37.53;;;33.30;;
19971;SDS011;10147;16.402;102.848;2023-03-31T04:58:25;39.30;;;33.90;;
19971;SDS011;10147;16.402;102.848;2023-03-31T05:00:56;38.25;;;32.95;;
19971;SDS011;10147;16.402;102.848;2023-03-31T05:03:27;41.17;;;33.72;;
19971;SDS011;10147;16.402;102.848;2023-03-31T05:05:57;34.45;;;30.60;;
19971;SDS011;10147;16.402;102.848;2023-03-31T05:08:28;34.20;;;30.20;;
19971;SDS011;10147;16.402;102.848;2023-03-31T05:10:58;32.78;;;29.00;;
19971;SDS011;10147;16.402;102.848;2023-03-31T05:13:28;32.85;;;29.35;;
19971;SDS011;10147;16.402;102.848;2023-03-31T05:16:04;31.90;;;28.35;;
19971;SDS011;10147;16.402;102.848;2023-03-31T05:18:36;31.38;;;28.00;;
19971;SDS011;10147;16.402;102.848;2023-03-31T05:21:10;29.58;;;26.48;;
19971;SDS011;10147;16.402;102.848;2023-03-31T05:23:41;27.00;;;24.20;;
19971;SDS011;10147;16.402;102.848;2023-03-31T05:26:12;29.00;;;25.90;;
19971;SDS011;10147;16.402;102.848;2023-03-31T05:28:42;29.60;;;26.52;;
19971;SDS011;10147;16.402;102.848;2023-03-31T05:31:13;30.15;;;26.90;;
19971;SDS011;10147;16.402;102.848;2023-03-31T05:33:43;31.52;;;26.20;;
19971;SDS011;10147;16.402;102.848;2023-03-31T05:36:15;29.80;;;26.05;;
19971;SDS011;10147;16.402;102.848;2023-03-31T05:38:46;29.55;;;26.35;;
19971;SDS011;10147;16.402;102.848;2023-03-31T05:41:16;27.42;;;24.50;;
19971;SDS011;10147;16.402;102.848;2023-03-31T05:43:48;28.63;;;25.58;;
19971;SDS011;10147;16.402;102.848;2023-03-31T05:46:18;31.67;;;27.17;;
19971;SDS011;10147;16.402;102.848;2023-03-31T05:48:49;29.73;;;26.60;;
19971;SDS011;10147;16.402;102.848;2023-03-31T05:51:19;30.05;;;26.25;;
19971;SDS011;10147;16.402;102.848;2023-03-31T05:53:49;30.88;;;26.15;;
19971;SDS011;10147;16.402;102.848;2023-03-31T05:56:20;27.50;;;24.45;;
19971;SDS011;10147;16.402;102.848;2023-03-31T05:58:51;30.90;;;26.40;;
19971;SDS011;10147;16.402;102.848;2023-03-31T06:01:21;31.25;;;28.00;;
19971;SDS011;10147;16.402;102.848;2023-03-31T06:03:53;30.75;;;27.52;;
19971;SDS011;10147;16.402;102.848;2023-03-31T06:06:24;30.27;;;27.23;;
19971;SDS011;10147;16.402;102.848;2023-03-31T06:08:54;30.95;;;27.67;;
19971;SDS011;10147;16.402;102.848;2023-03-31T06:11:25;29.88;;;26.52;;
19971;SDS011;10147;16.402;102.848;2023-03-31T06:13:55;31.02;;;25.73;;
19971;SDS011;10147;16.402;102.848;2023-03-31T06:16:25;29.92;;;25.40;;
19971;SDS011;10147;16.402;102.848;2023-03-31T06:18:56;28.58;;;25.67;;
19971;SDS011;10147;16.402;102.848;2023-03-31T06:21:27;26.63;;;23.88;;
19971;SDS011;10147;16.402;102.848;2023-03-31T06:23:57;26.77;;;24.10;;
19971;SDS011;10147;16.402;102.848;2023-03-31T06:26:28;31.70;;;25.15;;
19971;SDS011;10147;16.402;102.848;2023-03-31T06:28:59;31.13;;;25.58;;
19971;SDS011;10147;16.402;102.848;2023-03-31T06:31:29;27.42;;;24.52;;
19971;SDS011;10147;16.402;102.848;2023-03-31T06:33:59;28.30;;;25.50;;
19971;SDS011;10147;16.402;102.848;2023-03-31T06:36:30;27.15;;;24.33;;
19971;SDS011;10147;16.402;102.848;2023-03-31T06:39:00;28.13;;;25.08;;
19971;SDS011;10147;16.402;102.848;2023-03-31T06:41:31;27.63;;;24.73;;
19971;SDS011;10147;16.402;102.848;2023-03-31T06:44:01;28.33;;;25.33;;
19971;SDS011;10147;16.402;102.848;2023-03-31T06:46:32;30.67;;;26.15;;
19971;SDS011;10147;16.402;102.848;2023-03-31T06:49:02;28.30;;;25.40;;
19971;SDS011;10147;16.402;102.848;2023-03-31T06:51:32;27.45;;;24.65;;
19971;SDS011;10147;16.402;102.848;2023-03-31T06:54:03;28.80;;;25.77;;
19971;SDS011;10147;16.402;102.848;2023-03-31T06:56:34;28.27;;;25.35;;
19971;SDS011;10147;16.402;102.848;2023-03-31T06:59:04;27.25;;;23.63;;
19971;SDS011;10147;16.402;102.848;2023-03-31T07:01:34;31.42;;;23.23;;
19971;SDS011;10147;16.402;102.848;2023-03-31T07:04:06;26.13;;;23.42;;
19971;SDS011;10147;16.402;102.848;2023-03-31T07:06:37;24.95;;;22.35;;
19971;SDS011;10147;16.402;102.848;2023-03-31T07:09:07;25.73;;;23.05;;
19971;SDS011;10147;16.402;102.848;2023-03-31T07:11:38;24.42;;;21.92;;
19971;SDS011;10147;16.402;102.848;2023-03-31T07:14:09;25.73;;;22.95;;
19971;SDS011;10147;16.402;102.848;2023-03-31T07:16:39;23.83;;;21.13;;
19971;SDS011;10147;16.402;102.848;2023-03-31T07:19:10;24.23;;;21.67;;
19971;SDS011;10147;16.402;102.848;2023-03-31T07:21:41;25.40;;;22.85;;
19971;SDS011;10147;16.402;102.848;2023-03-31T07:24:12;23.48;;;21.17;;
19971;SDS011;10147;16.402;102.848;2023-03-31T07:26:42;23.65;;;20.35;;
19971;SDS011;10147;16.402;102.848;2023-03-31T07:29:12;22.73;;;20.48;;
19971;SDS011;10147;16.402;102.848;2023-03-31T07:31:45;23.95;;;21.40;;
19971;SDS011;10147;16.402;102.848;2023-03-31T07:34:16;23.67;;;21.25;;
19971;SDS011;10147;16.402;102.848;2023-03-31T07:36:47;23.83;;;21.42;;
19971;SDS011;10147;16.402;102.848;2023-03-31T07:39:18;22.33;;;20.02;;
19971;SDS011;10147;16.402;102.848;2023-03-31T07:41:48;22.27;;;20.08;;
19971;SDS011;10147;16.402;102.848;2023-03-31T07:44:19;27.48;;;20.00;;
19971;SDS011;10147;16.402;102.848;2023-03-31T07:46:51;22.35;;;20.02;;
19971;SDS011;10147;16.402;102.848;2023-03-31T07:49:21;22.38;;;19.58;;
19971;SDS011;10147;16.402;102.848;2023-03-31T07:51:52;22.52;;;19.65;;
19971;SDS011;10147;16.402;102.848;2023-03-31T07:54:23;22.58;;;20.23;;
19971;SDS011;10147;16.402;102.848;2023-03-31T07:56:53;20.42;;;18.42;;
19971;SDS011;10147;16.402;102.848;2023-03-31T07:59:23;23.67;;;20.60;;
19971;SDS011;10147;16.402;102.848;2023-03-31T08:01:53;21.95;;;19.65;;
19971;SDS011;10147;16.402;102.848;2023-03-31T08:04:24;22.48;;;19.00;;
19971;SDS011;10147;16.402;102.848;2023-03-31T08:06:55;23.30;;;20.95;;
19971;SDS011;10147;16.402;102.848;2023-03-31T08:09:26;25.25;;;22.55;;
19971;SDS011;10147;16.402;102.848;2023-03-31T08:11:56;21.45;;;19.10;;
19971;SDS011;10147;16.402;102.848;2023-03-31T08:14:27;21.35;;;19.15;;
19971;SDS011;10147;16.402;102.848;2023-03-31T08:17:08;28.35;;;23.88;;
19971;SDS011;10147;16.402;102.848;2023-03-31T08:19:38;28.00;;;24.70;;
19971;SDS011;10147;16.402;102.848;2023-03-31T08:22:09;28.40;;;25.30;;
19971;SDS011;10147;16.402;102.848;2023-03-31T08:24:39;29.08;;;25.98;;
19971;SDS011;10147;16.402;102.848;2023-03-31T08:27:10;28.08;;;24.80;;
19971;SDS011;10147;16.402;102.848;2023-03-31T08:29:40;28.00;;;25.15;;
19971;SDS011;10147;16.402;102.848;2023-03-31T08:32:11;26.98;;;24.27;;
19971;SDS011;10147;16.402;102.848;2023-03-31T08:34:41;27.20;;;24.30;;
19971;SDS011;10147;16.402;102.848;2023-03-31T08:37:14;30.48;;;25.17;;
19971;SDS011;10147;16.402;102.848;2023-03-31T08:39:44;26.10;;;23.30;;
19971;SDS011;10147;16.402;102.848;2023-03-31T08:42:15;26.10;;;23.50;;
19971;SDS011;10147;16.402;102.848;2023-03-31T08:44:54;26.77;;;23.98;;
19971;SDS011;10147;16.402;102.848;2023-03-31T08:47:28;26.25;;;23.45;;
19971;SDS011;10147;16.402;102.848;2023-03-31T08:50:02;28.10;;;24.98;;
19971;SDS011;10147;16.402;102.848;2023-03-31T08:52:36;35.97;;;30.02;;
19971;SDS011;10147;16.402;102.848;2023-03-31T08:55:17;28.95;;;25.92;;
19971;SDS011;10147;16.402;102.848;2023-03-31T08:57:51;28.02;;;25.02;;
19971;SDS011;10147;16.402;102.848;2023-03-31T09:00:24;27.48;;;24.55;;
19971;SDS011;10147;16.402;102.848;2023-03-31T09:02:58;27.80;;;24.77;;
19971;SDS011;10147;16.402;102.848;2023-03-31T09:05:39;28.90;;;25.33;;
19971;SDS011;10147;16.402;102.848;2023-03-31T09:08:30;30.73;;;27.42;;
19971;SDS011;10147;16.402;102.848;2023-03-31T09:13:56;29.52;;;23.80;;
19971;SDS011;10147;16.402;102.848;2023-03-31T09:19:25;27.65;;;22.80;;
19971;SDS011;10147;16.402;102.848;2023-03-31T09:21:59;29.70;;;25.35;;
19971;SDS011;10147;16.402;102.848;2023-03-31T09:24:30;26.48;;;23.65;;
19971;SDS011;10147;16.402;102.848;2023-03-31T09:27:03;26.77;;;23.75;;
19971;SDS011;10147;16.402;102.848;2023-03-31T09:29:48;27.10;;;24.40;;
19971;SDS011;10147;16.402;102.848;2023-03-31T09:32:24;27.80;;;24.90;;
19971;SDS011;10147;16.402;102.848;2023-03-31T09:37:47;25.77;;;23.02;;
19971;SDS011;10147;16.402;102.848;2023-03-31T09:40:20;26.05;;;23.17;;
19971;SDS011;10147;16.402;102.848;2023-03-31T09:42:58;26.42;;;23.73;;
19971;SDS011;10147;16.402;102.848;2023-03-31T09:45:29;27.10;;;23.00;;
19971;SDS011;10147;16.402;102.848;2023-03-31T09:48:03;30.90;;;24.23;;
19971;SDS011;10147;16.402;102.848;2023-03-31T09:50:42;26.30;;;23.70;;
19971;SDS011;10147;16.402;102.848;2023-03-31T09:53:17;26.48;;;23.63;;
19971;SDS011;10147;16.402;102.848;2023-03-31T09:55:51;26.73;;;24.08;;
19971;SDS011;10147;16.402;102.848;2023-03-31T09:58:25;29.70;;;26.60;;
19971;SDS011;10147;16.402;102.848;2023-03-31T10:01:02;27.90;;;24.85;;
19971;SDS011;10147;16.402;102.848;2023-03-31T10:03:48;24.92;;;22.42;;
19971;SDS011;10147;16.402;102.848;2023-03-31T10:06:20;31.20;;;25.40;;
19971;SDS011;10147;16.402;102.848;2023-03-31T10:08:53;28.45;;;24.23;;
19971;SDS011;10147;16.402;102.848;2023-03-31T10:11:25;27.92;;;23.17;;
19971;SDS011;10147;16.402;102.848;2023-03-31T10:14:02;28.15;;;23.65;;
19971;SDS011;10147;16.402;102.848;2023-03-31T10:19:24;31.60;;;25.80;;
19971;SDS011;10147;16.402;102.848;2023-03-31T10:22:04;32.17;;;26.35;;
19971;SDS011;10147;16.402;102.848;2023-03-31T10:24:36;33.65;;;27.88;;
19971;SDS011;10147;16.402;102.848;2023-03-31T10:29:59;35.50;;;30.70;;
19971;SDS011;10147;16.402;102.848;2023-03-31T10:32:33;41.10;;;34.20;;
19971;SDS011;10147;16.402;102.848;2023-03-31T10:35:29;47.75;;;38.42;;
19971;SDS011;10147;16.402;102.848;2023-03-31T10:38:03;56.13;;;42.95;;
19971;SDS011;10147;16.402;102.848;2023-03-31T10:40:35;61.33;;;44.72;;
19971;SDS011;10147;16.402;102.848;2023-03-31T10:45:55;53.25;;;42.97;;
19971;SDS011;10147;16.402;102.848;2023-03-31T10:48:30;50.95;;;39.53;;
19971;SDS011;10147;16.402;102.848;2023-03-31T10:51:05;42.75;;;34.78;;
19971;SDS011;10147;16.402;102.848;2023-03-31T10:53:42;42.30;;;33.75;;
19971;SDS011;10147;16.402;102.848;2023-03-31T11:16:10;45.63;;;34.05;;
19971;SDS011;10147;16.402;102.848;2023-03-31T11:18:48;50.70;;;34.03;;
19971;SDS011;10147;16.402;102.848;2023-03-31T11:21:30;40.00;;;32.70;;
19971;SDS011;10147;16.402;102.848;2023-03-31T11:32:50;48.83;;;40.83;;
19971;SDS011;10147;16.402;102.848;2023-03-31T11:41:12;39.15;;;32.05;;
19971;SDS011;10147;16.402;102.848;2023-03-31T11:43:47;59.85;;;45.28;;
19971;SDS011;10147;16.402;102.848;2023-03-31T11:46:20;62.15;;;43.47;;
19971;SDS011;10147;16.402;102.848;2023-03-31T11:48:53;55.15;;;42.35;;
19971;SDS011;10147;16.402;102.848;2023-03-31T11:51:40;50.55;;;38.75;;
19971;SDS011;10147;16.402;102.848;2023-03-31T11:57:02;43.50;;;34.75;;
19971;SDS011;10147;16.402;102.848;2023-03-31T11:59:33;45.25;;;33.03;;
19971;SDS011;10147;16.402;102.848;2023-03-31T12:04:55;58.58;;;44.92;;
19971;SDS011;10147;16.402;102.848;2023-03-31T12:07:41;48.45;;;38.50;;
19971;SDS011;10147;16.402;102.848;2023-03-31T12:10:18;47.13;;;36.63;;
19971;SDS011;10147;16.402;102.848;2023-03-31T12:12:53;52.88;;;39.35;;
19971;SDS011;10147;16.402;102.848;2023-03-31T12:15:32;49.70;;;38.88;;
19971;SDS011;10147;16.402;102.848;2023-03-31T12:20:57;56.70;;;45.97;;
19971;SDS011;10147;16.402;102.848;2023-03-31T12:23:30;70.03;;;52.20;;
19971;SDS011;10147;16.402;102.848;2023-03-31T12:26:07;52.28;;;40.33;;
19971;SDS011;10147;16.402;102.848;2023-03-31T12:28:40;47.60;;;36.42;;
19971;SDS011;10147;16.402;102.848;2023-03-31T12:31:20;42.47;;;33.45;;
19971;SDS011;10147;16.402;102.848;2023-03-31T12:33:59;38.85;;;31.58;;
19971;SDS011;10147;16.402;102.848;2023-03-31T12:36:43;40.30;;;31.08;;
19971;SDS011;10147;16.402;102.848;2023-03-31T12:39:25;35.67;;;30.95;;
19971;SDS011;10147;16.402;102.848;2023-03-31T12:45:12;43.92;;;32.63;;
19971;SDS011;10147;16.402;102.848;2023-03-31T12:50:43;44.63;;;36.33;;
19971;SDS011;10147;16.402;102.848;2023-03-31T12:53:32;46.13;;;33.70;;
19971;SDS011;10147;16.402;102.848;2023-03-31T12:56:04;47.05;;;35.03;;
19971;SDS011;10147;16.402;102.848;2023-03-31T12:58:40;50.03;;;35.83;;
19971;SDS011;10147;16.402;102.848;2023-03-31T13:04:08;48.13;;;36.08;;
19971;SDS011;10147;16.402;102.848;2023-03-31T13:06:51;41.10;;;32.70;;
19971;SDS011;10147;16.402;102.848;2023-03-31T13:09:38;42.10;;;31.20;;
19971;SDS011;10147;16.402;102.848;2023-03-31T13:12:12;39.53;;;33.85;;
19971;SDS011;10147;16.402;102.848;2023-03-31T13:14:44;42.55;;;34.33;;
19971;SDS011;10147;16.402;102.848;2023-03-31T13:17:28;43.05;;;36.10;;
19971;SDS011;10147;16.402;102.848;2023-03-31T13:22:49;46.90;;;35.80;;
19971;SDS011;10147;16.402;102.848;2023-03-31T13:25:36;50.00;;;36.85;;
19971;SDS011;10147;16.402;102.848;2023-03-31T13:28:10;44.83;;;36.78;;
19971;SDS011;10147;16.402;102.848;2023-03-31T13:30:43;52.50;;;37.78;;
19971;SDS011;10147;16.402;102.848;2023-03-31T13:33:14;45.33;;;36.20;;
19971;SDS011;10147;16.402;102.848;2023-03-31T13:50:02;64.40;;;46.05;;
19971;SDS011;10147;16.402;102.848;2023-03-31T13:55:35;59.38;;;46.95;;
19971;SDS011;10147;16.402;102.848;2023-03-31T13:58:18;61.97;;;49.28;;
19971;SDS011;10147;16.402;102.848;2023-03-31T14:09:32;54.50;;;45.13;;
19971;SDS011;10147;16.402;102.848;2023-03-31T14:14:55;57.42;;;45.70;;
19971;SDS011;10147;16.402;102.848;2023-03-31T14:17:28;55.88;;;45.30;;
19971;SDS011;10147;16.402;102.848;2023-03-31T14:20:04;55.92;;;46.22;;
19971;SDS011;10147;16.402;102.848;2023-03-31T14:25:37;54.33;;;44.05;;
19971;SDS011;10147;16.402;102.848;2023-03-31T14:28:18;52.15;;;44.65;;
19971;SDS011;10147;16.402;102.848;2023-03-31T14:39:32;61.78;;;49.58;;
19971;SDS011;10147;16.402;102.848;2023-03-31T14:42:05;60.30;;;48.03;;
19971;SDS011;10147;16.402;102.848;2023-03-31T14:44:40;52.17;;;42.47;;
19971;SDS011;10147;16.402;102.848;2023-03-31T14:47:23;51.08;;;41.90;;
19971;SDS011;10147;16.402;102.848;2023-03-31T14:50:00;45.38;;;38.70;;
19971;SDS011;10147;16.402;102.848;2023-03-31T14:52:34;40.53;;;35.42;;
19971;SDS011;10147;16.402;102.848;2023-03-31T14:55:06;41.70;;;36.67;;
19971;SDS011;10147;16.402;102.848;2023-03-31T14:57:37;40.47;;;34.60;;
19971;SDS011;10147;16.402;102.848;2023-03-31T15:00:29;43.22;;;35.08;;
19971;SDS011;10147;16.402;102.848;2023-03-31T15:02:59;43.65;;;38.92;;
19971;SDS011;10147;16.402;102.848;2023-03-31T15:05:32;38.38;;;32.70;;
19971;SDS011;10147;16.402;102.848;2023-03-31T15:08:04;42.35;;;33.25;;
19971;SDS011;10147;16.402;102.848;2023-03-31T15:10:36;36.58;;;32.30;;
19971;SDS011;10147;16.402;102.848;2023-03-31T15:13:11;38.63;;;34.25;;
19971;SDS011;10147;16.402;102.848;2023-03-31T15:15:45;38.42;;;33.42;;
19971;SDS011;10147;16.402;102.848;2023-03-31T15:18:15;37.03;;;33.10;;
19971;SDS011;10147;16.402;102.848;2023-03-31T15:20:45;40.63;;;32.35;;
19971;SDS011;10147;16.402;102.848;2023-03-31T15:23:23;40.70;;;33.58;;
19971;SDS011;10147;16.402;102.848;2023-03-31T15:26:00;39.55;;;32.67;;
19971;SDS011;10147;16.402;102.848;2023-03-31T15:28:32;39.97;;;32.22;;
19971;SDS011;10147;16.402;102.848;2023-03-31T15:31:05;37.78;;;32.22;;
19971;SDS011;10147;16.402;102.848;2023-03-31T15:33:38;40.13;;;32.05;;
19971;SDS011;10147;16.402;102.848;2023-03-31T15:36:12;34.10;;;30.23;;
19971;SDS011;10147;16.402;102.848;2023-03-31T15:38:43;35.40;;;29.55;;
19971;SDS011;10147;16.402;102.848;2023-03-31T15:41:14;34.58;;;29.10;;
19971;SDS011;10147;16.402;102.848;2023-03-31T15:43:46;37.50;;;31.08;;
19971;SDS011;10147;16.402;102.848;2023-03-31T15:46:24;39.20;;;32.22;;
19971;SDS011;10147;16.402;102.848;2023-03-31T15:48:55;43.55;;;32.67;;
19971;SDS011;10147;16.402;102.848;2023-03-31T15:51:33;41.85;;;32.28;;
19971;SDS011;10147;16.402;102.848;2023-03-31T15:54:11;61.70;;;51.97;;
19971;SDS011;10147;16.402;102.848;2023-03-31T15:57:04;35.88;;;31.35;;
19971;SDS011;10147;16.402;102.848;2023-03-31T15:59:45;34.35;;;30.23;;
19971;SDS011;10147;16.402;102.848;2023-03-31T16:02:24;34.00;;;30.35;;
19971;SDS011;10147;16.402;102.848;2023-03-31T16:04:56;35.22;;;29.63;;
19971;SDS011;10147;16.402;102.848;2023-03-31T16:07:34;32.30;;;28.88;;
19971;SDS011;10147;16.402;102.848;2023-03-31T16:12:57;33.38;;;29.85;;
19971;SDS011;10147;16.402;102.848;2023-03-31T16:15:29;36.60;;;29.75;;
19971;SDS011;10147;16.402;102.848;2023-03-31T16:18:04;33.28;;;29.67;;
19971;SDS011;10147;16.402;102.848;2023-03-31T16:20:37;34.25;;;30.42;;
19971;SDS011;10147;16.402;102.848;2023-03-31T16:23:24;35.08;;;31.38;;
19971;SDS011;10147;16.402;102.848;2023-03-31T16:25:55;37.53;;;33.20;;
19971;SDS011;10147;16.402;102.848;2023-03-31T16:28:26;50.40;;;42.22;;
19971;SDS011;10147;16.402;102.848;2023-03-31T16:30:57;54.35;;;42.25;;
19971;SDS011;10147;16.402;102.848;2023-03-31T16:33:30;55.22;;;39.58;;
19971;SDS011;10147;16.402;102.848;2023-03-31T16:36:00;47.63;;;38.42;;
19971;SDS011;10147;16.402;102.848;2023-03-31T16:38:32;39.38;;;33.75;;
19971;SDS011;10147;16.402;102.848;2023-03-31T16:41:02;42.20;;;34.40;;
19971;SDS011;10147;16.402;102.848;2023-03-31T16:43:35;38.85;;;33.70;;
19971;SDS011;10147;16.402;102.848;2023-03-31T16:46:05;44.25;;;35.28;;
19971;SDS011;10147;16.402;102.848;2023-03-31T16:48:35;41.03;;;34.33;;
19971;SDS011;10147;16.402;102.848;2023-03-31T16:51:05;35.10;;;30.52;;
19971;SDS011;10147;16.402;102.848;2023-03-31T16:53:36;45.90;;;35.78;;
19971;SDS011;10147;16.402;102.848;2023-03-31T16:56:07;43.63;;;36.03;;
19971;SDS011;10147;16.402;102.848;2023-03-31T16:58:38;52.70;;;37.95;;
19971;SDS011;10147;16.402;102.848;2023-03-31T17:01:08;45.58;;;38.28;;